createdAt,value
2017-03-20T00:00:15.673Z,30.74
2017-03-20T00:01:24.461Z,30.74
2017-03-20T00:02:33.526Z,30.55
2017-03-20T00:03:43.207Z,30.64
2017-03-20T00:04:52.576Z,30.64
2017-03-20T00:06:01.946Z,30.83
2017-03-20T00:07:11.323Z,30.74
2017-03-20T00:08:20.993Z,30.64
2017-03-20T00:09:30.111Z,30.55
2017-03-20T00:10:39.799Z,30.64
2017-03-20T00:11:48.832Z,30.35
2017-03-20T00:12:58.196Z,30.64
2017-03-20T00:14:07.573Z,30.64
2017-03-20T00:15:16.640Z,30.64
2017-03-20T00:16:25.682Z,30.64
2017-03-20T00:17:34.618Z,30.64
2017-03-20T00:18:44.598Z,30.74
2017-03-20T00:19:54.547Z,30.64
2017-03-20T00:21:04.170Z,30.83
2017-03-20T00:22:13.196Z,30.74
2017-03-20T00:23:22.568Z,30.64
2017-03-20T00:24:31.632Z,30.55
2017-03-20T00:25:40.405Z,30.64
2017-03-20T00:26:49.438Z,30.93
2017-03-20T00:27:58.465Z,30.55
2017-03-20T00:29:08.142Z,30.64
2017-03-20T00:30:17.179Z,30.64
2017-03-20T00:31:26.170Z,30.74
2017-03-20T00:32:34.889Z,30.64
2017-03-20T00:33:44.540Z,30.64
2017-03-20T00:34:54.163Z,30.64
2017-03-20T00:36:03.841Z,30.74
2017-03-20T00:37:13.214Z,30.93
2017-03-20T00:38:22.250Z,30.64
2017-03-20T00:39:30.950Z,30.55
2017-03-20T00:40:40.576Z,30.64
2017-03-20T00:41:49.641Z,30.64
2017-03-20T00:42:58.999Z,30.64
2017-03-20T00:44:09.005Z,30.64
2017-03-20T00:45:18.639Z,30.64
2017-03-20T00:46:27.405Z,30.83
2017-03-20T00:47:36.777Z,30.45
2017-03-20T00:48:46.675Z,30.64
2017-03-20T00:49:56.006Z,30.64
2017-03-20T00:51:04.743Z,30.64
2017-03-20T00:52:13.801Z,30.55
2017-03-20T00:53:23.481Z,31.12
2017-03-20T00:54:33.463Z,30.64
2017-03-20T00:55:42.220Z,30.45
2017-03-20T00:56:51.285Z,30.45
2017-03-20T00:58:00.624Z,30.45
2017-03-20T00:59:09.703Z,30.64
2017-03-20T01:00:18.440Z,30.55
2017-03-20T01:01:27.465Z,31.12
2017-03-20T01:02:36.277Z,30.93
2017-03-20T01:03:45.345Z,30.45
2017-03-20T01:04:54.711Z,30.93
2017-03-20T01:06:04.081Z,30.45
2017-03-20T01:07:13.456Z,30.53
2017-03-20T01:08:23.135Z,31.22
2017-03-20T01:09:32.775Z,30.45
2017-03-20T01:10:41.794Z,30.45
2017-03-20T01:11:50.533Z,30.35
2017-03-20T01:12:59.874Z,30.35
2017-03-20T01:14:09.549Z,30.45
2017-03-20T01:15:18.930Z,30.35
2017-03-20T01:16:27.687Z,31.32
2017-03-20T01:17:36.458Z,31.22
2017-03-20T01:18:46.138Z,30.55
2017-03-20T01:19:55.512Z,31.11
2017-03-20T01:21:04.887Z,30.45
2017-03-20T01:22:13.955Z,31.03
2017-03-20T01:23:23.325Z,30.45
2017-03-20T01:24:32.692Z,30.83
2017-03-20T01:25:41.428Z,30.83
2017-03-20T01:26:50.141Z,30.83
2017-03-20T01:27:59.210Z,30.83
2017-03-20T01:29:09.095Z,30.82
2017-03-20T01:30:18.765Z,30.82
2017-03-20T01:31:28.130Z,30.82
2017-03-20T01:32:37.462Z,30.83
2017-03-20T01:33:46.836Z,30.82
2017-03-20T01:34:56.217Z,30.91
2017-03-20T01:36:05.592Z,30.63
2017-03-20T01:37:14.637Z,30.91
2017-03-20T01:38:23.365Z,30.43
2017-03-20T01:39:32.736Z,30.91
2017-03-20T01:40:41.802Z,30.73
2017-03-20T01:41:50.555Z,30.73
2017-03-20T01:42:59.595Z,30.82
2017-03-20T01:44:09.495Z,30.82
2017-03-20T01:45:18.829Z,30.82
2017-03-20T01:46:27.877Z,30.63
2017-03-20T01:47:37.207Z,30.73
2017-03-20T01:48:46.543Z,30.73
2017-03-20T01:49:56.193Z,30.63
2017-03-20T01:51:05.518Z,30.91
2017-03-20T01:52:14.883Z,30.82
2017-03-20T01:53:24.243Z,30.73
2017-03-20T01:54:33.923Z,30.63
2017-03-20T01:55:43.292Z,30.82
2017-03-20T01:56:52.353Z,30.82
2017-03-20T01:58:01.721Z,30.82
2017-03-20T01:59:11.516Z,30.73
2017-03-20T02:00:20.591Z,30.63
2017-03-20T02:01:29.635Z,30.63
2017-03-20T02:02:39.002Z,30.73
2017-03-20T02:03:48.078Z,30.73
2017-03-20T02:04:57.750Z,30.82
2017-03-20T02:06:06.850Z,30.82
2017-03-20T02:07:15.917Z,30.63
2017-03-20T02:08:24.980Z,30.53
2017-03-20T02:09:33.723Z,30.73
2017-03-20T02:10:42.745Z,30.82
2017-03-20T02:11:51.501Z,30.82
2017-03-20T02:13:00.268Z,30.63
2017-03-20T02:14:09.311Z,30.82
2017-03-20T02:15:18.388Z,30.63
2017-03-20T02:16:27.731Z,30.82
2017-03-20T02:17:36.748Z,30.63
2017-03-20T02:18:46.421Z,30.82
2017-03-20T02:19:55.191Z,30.63
2017-03-20T02:21:04.568Z,30.73
2017-03-20T02:22:13.322Z,30.73
2017-03-20T02:23:22.395Z,30.73
2017-03-20T02:24:31.771Z,30.82
2017-03-20T02:25:40.829Z,30.82
2017-03-20T02:26:49.561Z,30.73
2017-03-20T02:27:58.943Z,30.91
2017-03-20T02:29:08.311Z,30.73
2017-03-20T02:30:17.989Z,31.01
2017-03-20T02:31:27.021Z,30.82
2017-03-20T02:32:35.734Z,31.01
2017-03-20T02:33:45.107Z,30.82
2017-03-20T02:34:54.474Z,30.82
2017-03-20T02:36:03.540Z,30.91
2017-03-20T02:37:12.911Z,30.82
2017-03-20T02:38:21.949Z,30.73
2017-03-20T02:39:30.984Z,30.63
2017-03-20T02:40:40.059Z,30.91
2017-03-20T02:41:49.112Z,30.91
2017-03-20T02:42:58.476Z,30.91
2017-03-20T02:44:08.151Z,30.91
2017-03-20T02:45:18.101Z,31.01
2017-03-20T02:46:27.418Z,30.82
2017-03-20T02:47:36.741Z,30.73
2017-03-20T02:48:46.716Z,30.82
2017-03-20T02:49:56.364Z,30.82
2017-03-20T02:51:05.365Z,31.01
2017-03-20T02:52:14.084Z,31.11
2017-03-20T02:53:23.146Z,30.91
2017-03-20T02:54:32.869Z,30.82
2017-03-20T02:55:41.938Z,31.01
2017-03-20T02:56:50.996Z,30.91
2017-03-20T02:58:00.674Z,30.73
2017-03-20T02:59:10.959Z,30.91
2017-03-20T03:00:20.365Z,31.01
2017-03-20T03:01:30.039Z,31.01
2017-03-20T03:02:39.358Z,30.73
2017-03-20T03:03:48.704Z,31.01
2017-03-20T03:04:57.733Z,31.01
2017-03-20T03:06:07.107Z,30.91
2017-03-20T03:07:16.169Z,31.11
2017-03-20T03:08:25.227Z,30.82
2017-03-20T03:09:35.210Z,30.73
2017-03-20T03:10:44.576Z,31.11
2017-03-20T03:11:53.328Z,31.11
2017-03-20T03:13:02.972Z,31.01
2017-03-20T03:14:12.610Z,30.91
2017-03-20T03:15:22.284Z,30.91
2017-03-20T03:16:31.642Z,31.01
2017-03-20T03:17:41.016Z,31.01
2017-03-20T03:18:50.078Z,30.91
2017-03-20T03:19:59.414Z,30.91
2017-03-20T03:21:08.106Z,31.01
2017-03-20T03:22:17.134Z,30.91
2017-03-20T03:23:26.513Z,30.91
2017-03-20T03:24:35.880Z,31.01
2017-03-20T03:25:44.948Z,30.91
2017-03-20T03:26:54.016Z,31.11
2017-03-20T03:28:03.093Z,30.91
2017-03-20T03:29:12.459Z,31.11
2017-03-20T03:30:22.167Z,31.01
2017-03-20T03:31:31.229Z,31.49
2017-03-20T03:32:40.318Z,31.01
2017-03-20T03:33:49.963Z,31.01
2017-03-20T03:34:59.593Z,31.01
2017-03-20T03:36:08.856Z,31
2017-03-20T03:37:17.619Z,30.91
2017-03-20T03:38:26.673Z,30.91
2017-03-20T03:39:36.033Z,31.01
2017-03-20T03:40:45.054Z,31.11
2017-03-20T03:41:54.119Z,31.11
2017-03-20T03:43:02.892Z,31
2017-03-20T03:44:12.537Z,30.91
2017-03-20T03:45:22.039Z,31.29
2017-03-20T03:46:30.766Z,30.91
2017-03-20T03:47:40.466Z,30.61
2017-03-20T03:48:49.839Z,30.82
2017-03-20T03:49:59.224Z,30.9
2017-03-20T03:51:08.555Z,31.01
2017-03-20T03:52:17.614Z,30.9
2017-03-20T03:53:26.352Z,31.09
2017-03-20T03:54:35.728Z,31.01
2017-03-20T03:55:59.990Z,31
2017-03-20T03:57:08.754Z,30.9
2017-03-20T03:58:17.530Z,31
2017-03-20T03:59:27.530Z,31
2017-03-20T04:00:36.909Z,31.3
2017-03-20T04:01:45.835Z,31.29
2017-03-20T04:02:54.931Z,31.19
2017-03-20T04:04:04.010Z,31
2017-03-20T04:05:13.399Z,31.38
2017-03-20T04:06:22.464Z,31.29
2017-03-20T04:07:31.521Z,31
2017-03-20T04:08:41.144Z,31.19
2017-03-20T04:09:50.180Z,31.38
2017-03-20T04:10:59.565Z,31.09
2017-03-20T04:12:08.638Z,31.19
2017-03-20T04:13:17.705Z,31.38
2017-03-20T04:14:27.382Z,31
2017-03-20T04:15:37.067Z,31
2017-03-20T04:16:46.018Z,31.48
2017-03-20T04:17:55.113Z,31.19
2017-03-20T04:19:04.803Z,31.38
2017-03-20T04:20:14.117Z,31
2017-03-20T04:21:23.176Z,31.19
2017-03-20T04:22:32.303Z,31
2017-03-20T04:23:41.700Z,31.38
2017-03-20T04:24:51.682Z,31.38
2017-03-20T04:26:01.632Z,31
2017-03-20T04:27:10.712Z,31
2017-03-20T04:28:20.110Z,31.38
2017-03-20T04:29:30.087Z,31
2017-03-20T04:30:39.723Z,31.38
2017-03-20T04:31:48.801Z,31
2017-03-20T04:32:57.881Z,31
2017-03-20T04:34:07.237Z,31
2017-03-20T04:35:16.569Z,31.09
2017-03-20T04:36:25.336Z,31
2017-03-20T04:37:34.414Z,30.61
2017-03-20T04:38:44.111Z,30.9
2017-03-20T04:39:53.795Z,30.8
2017-03-20T04:41:02.566Z,31
2017-03-20T04:42:11.348Z,31
2017-03-20T04:43:21.038Z,31
2017-03-20T04:44:30.107Z,31
2017-03-20T04:45:39.440Z,30.8
2017-03-20T04:46:48.204Z,30.8
2017-03-20T04:47:56.974Z,30.8
2017-03-20T04:49:06.931Z,30.9
2017-03-20T04:50:16.860Z,30.71
2017-03-20T04:51:25.557Z,30.8
2017-03-20T04:52:34.592Z,31
2017-03-20T04:53:44.294Z,30.9
2017-03-20T04:54:53.985Z,30.8
2017-03-20T04:56:03.667Z,30.61
2017-03-20T04:57:12.738Z,30.71
2017-03-20T04:58:22.082Z,30.71
2017-03-20T04:59:31.723Z,30.71
2017-03-20T05:00:41.104Z,30.8
2017-03-20T05:01:50.170Z,30.8
2017-03-20T05:02:59.555Z,30.8
2017-03-20T05:04:09.248Z,30.71
2017-03-20T05:05:19.243Z,30.82
2017-03-20T05:06:28.311Z,30.8
2017-03-20T05:07:37.382Z,30.52
2017-03-20T05:08:46.779Z,30.82
2017-03-20T05:09:56.765Z,30.71
2017-03-20T05:11:05.837Z,30.43
2017-03-20T05:12:15.501Z,30.34
2017-03-20T05:13:24.537Z,30.91
2017-03-20T05:14:34.223Z,30.34
2017-03-20T05:15:43.508Z,30.34
2017-03-20T05:16:52.247Z,30.53
2017-03-20T05:18:01.019Z,31.11
2017-03-20T05:19:10.653Z,30.43
2017-03-20T05:20:20.300Z,30.43
2017-03-20T05:21:29.368Z,31.11
2017-03-20T05:22:38.747Z,30.43
2017-03-20T05:23:48.743Z,30.43
2017-03-20T05:24:58.121Z,30.63
2017-03-20T05:26:07.497Z,30.53
2017-03-20T05:27:16.577Z,30.63
2017-03-20T05:28:25.653Z,30.53
2017-03-20T05:29:35.663Z,30.73
2017-03-20T05:30:44.745Z,30.82
2017-03-20T05:31:53.522Z,30.63
2017-03-20T05:33:02.268Z,30.53
2017-03-20T05:34:12.210Z,30.63
2017-03-20T05:35:21.913Z,30.63
2017-03-20T05:36:31.002Z,30.63
2017-03-20T05:37:39.774Z,30.73
2017-03-20T05:38:49.464Z,30.73
2017-03-20T05:39:58.841Z,30.53
2017-03-20T05:41:07.923Z,30.82
2017-03-20T05:42:16.949Z,30.63
2017-03-20T05:43:25.978Z,30.34
2017-03-20T05:44:35.367Z,30.63
2017-03-20T05:45:44.132Z,30.73
2017-03-20T05:46:53.218Z,30.82
2017-03-20T05:48:02.567Z,30.82
2017-03-20T05:49:11.911Z,30.24
2017-03-20T05:50:21.873Z,30.53
2017-03-20T05:51:31.289Z,30.53
2017-03-20T05:52:40.098Z,30.43
2017-03-20T05:53:50.646Z,30.63
2017-03-20T05:55:00.330Z,30.63
2017-03-20T05:56:09.111Z,30.43
2017-03-20T05:57:18.124Z,30.63
2017-03-20T05:58:27.456Z,30.63
2017-03-20T05:59:36.839Z,30.53
2017-03-20T06:00:46.527Z,30.53
2017-03-20T06:01:55.333Z,30.53
2017-03-20T06:03:04.720Z,30.53
2017-03-20T06:04:13.707Z,30.64
2017-03-20T06:05:23.063Z,30.16
2017-03-20T06:06:32.100Z,30.24
2017-03-20T06:07:41.184Z,30.35
2017-03-20T06:08:50.856Z,30.35
2017-03-20T06:10:00.708Z,30.26
2017-03-20T06:11:09.794Z,30.64
2017-03-20T06:12:18.872Z,30.35
2017-03-20T06:13:27.934Z,30.45
2017-03-20T06:14:36.673Z,30.35
2017-03-20T06:15:45.951Z,30.55
2017-03-20T06:16:55.026Z,30.35
2017-03-20T06:18:03.796Z,30.93
2017-03-20T06:19:13.785Z,30.83
2017-03-20T06:20:23.476Z,30.35
2017-03-20T06:21:32.857Z,30.35
2017-03-20T06:22:42.246Z,30.55
2017-03-20T06:23:51.645Z,31.12
2017-03-20T06:25:01.418Z,30.93
2017-03-20T06:26:10.455Z,30.74
2017-03-20T06:27:19.525Z,30.64
2017-03-20T06:28:29.214Z,30.74
2017-03-20T06:29:39.203Z,30.64
2017-03-20T06:30:47.977Z,30.83
2017-03-20T06:31:57.059Z,30.93
2017-03-20T06:33:06.458Z,30.74
2017-03-20T06:34:16.459Z,30.64
2017-03-20T06:35:25.535Z,30.74
2017-03-20T06:36:34.302Z,30.64
2017-03-20T06:37:43.683Z,30.45
2017-03-20T06:38:53.978Z,30.35
2017-03-20T06:40:03.980Z,30.55
2017-03-20T06:41:12.988Z,30.55
2017-03-20T06:42:21.758Z,30.45
2017-03-20T06:43:30.838Z,30.35
2017-03-20T06:44:40.842Z,30.35
2017-03-20T06:45:50.186Z,30.35
2017-03-20T06:46:59.874Z,30.45
2017-03-20T06:48:09.694Z,30.35
2017-03-20T06:49:19.030Z,30.35
2017-03-20T06:50:28.420Z,30.64
2017-03-20T06:51:38.302Z,30.16
2017-03-20T06:52:47.386Z,30.07
2017-03-20T06:53:57.261Z,30.55
2017-03-20T06:55:06.601Z,30.07
2017-03-20T06:56:15.370Z,29.87
2017-03-20T06:57:24.172Z,30.26
2017-03-20T06:58:33.117Z,29.97
2017-03-20T06:59:41.881Z,30.26
2017-03-20T07:00:50.956Z,30.26
2017-03-20T07:02:00.636Z,30.26
2017-03-20T07:03:10.170Z,30.26
2017-03-20T07:04:19.255Z,29.97
2017-03-20T07:05:28.930Z,29.98
2017-03-20T07:06:38.313Z,29.87
2017-03-20T07:07:47.714Z,30.16
2017-03-20T07:08:57.430Z,30.07
2017-03-20T07:10:07.413Z,29.87
2017-03-20T07:11:16.464Z,29.87
2017-03-20T07:12:25.538Z,29.87
2017-03-20T07:13:35.206Z,30.18
2017-03-20T07:14:44.866Z,30.07
2017-03-20T07:15:54.255Z,30.08
2017-03-20T07:17:03.034Z,29.89
2017-03-20T07:18:12.625Z,30.08
2017-03-20T07:19:21.995Z,30.07
2017-03-20T07:20:31.688Z,30.07
2017-03-20T07:21:40.768Z,30.18
2017-03-20T07:22:49.847Z,30.08
2017-03-20T07:23:59.876Z,29.89
2017-03-20T07:25:08.957Z,30.08
2017-03-20T07:26:18.033Z,30.07
2017-03-20T07:27:26.802Z,30.08
2017-03-20T07:28:35.885Z,29.6
2017-03-20T07:29:45.279Z,29.69
2017-03-20T07:30:54.859Z,29.69
2017-03-20T07:32:03.919Z,29.5
2017-03-20T07:33:13.254Z,29.69
2017-03-20T07:34:22.649Z,30.08
2017-03-20T07:35:32.654Z,29.89
2017-03-20T07:36:41.734Z,29.98
2017-03-20T07:37:50.796Z,29.69
2017-03-20T07:39:00.156Z,29.79
2017-03-20T07:40:09.504Z,29.79
2017-03-20T07:41:19.132Z,29.69
2017-03-20T07:42:27.903Z,29.79
2017-03-20T07:43:37.278Z,29.69
2017-03-20T07:44:46.932Z,29.89
2017-03-20T07:45:56.015Z,29.6
2017-03-20T07:47:05.095Z,29.79
2017-03-20T07:48:14.180Z,29.89
2017-03-20T07:49:23.543Z,29.5
2017-03-20T07:50:32.856Z,29.89
2017-03-20T07:51:42.405Z,29.79
2017-03-20T07:52:51.786Z,29.79
2017-03-20T07:54:01.184Z,29.79
2017-03-20T07:55:10.674Z,29.79
2017-03-20T07:56:20.060Z,29.79
2017-03-20T07:57:28.830Z,29.89
2017-03-20T07:58:37.909Z,29.31
2017-03-20T07:59:47.881Z,29.79
2017-03-20T08:00:57.506Z,29.5
2017-03-20T08:02:06.249Z,29.6
2017-03-20T08:03:15.631Z,29.79
2017-03-20T08:04:25.636Z,29.69
2017-03-20T08:05:34.408Z,29.89
2017-03-20T08:06:43.500Z,29.79
2017-03-20T08:07:52.841Z,29.79
2017-03-20T08:09:02.835Z,29.89
2017-03-20T08:10:12.825Z,29.79
2017-03-20T08:11:21.904Z,29.5
2017-03-20T08:12:30.972Z,29.79
2017-03-20T08:13:41.222Z,29.79
2017-03-20T08:14:51.213Z,29.5
2017-03-20T08:16:00.909Z,29.5
2017-03-20T08:17:09.691Z,29.5
2017-03-20T08:18:19.049Z,29.5
2017-03-20T08:19:28.704Z,29.6
2017-03-20T08:20:38.311Z,29.98
2017-03-20T08:21:48.305Z,29.79
2017-03-20T08:22:57.381Z,29.79
2017-03-20T08:24:07.042Z,29.5
2017-03-20T08:25:16.658Z,29.69
2017-03-20T08:26:25.697Z,29.5
2017-03-20T08:27:34.769Z,29.6
2017-03-20T08:28:44.738Z,29.5
2017-03-20T08:29:53.782Z,29.21
2017-03-20T08:31:03.169Z,29.89
2017-03-20T08:32:12.245Z,29.79
2017-03-20T08:33:21.016Z,29.5
2017-03-20T08:34:30.099Z,29.69
2017-03-20T08:35:38.870Z,29.6
2017-03-20T08:36:47.942Z,29.69
2017-03-20T08:37:57.322Z,29.5
2017-03-20T08:39:06.700Z,29.11
2017-03-20T08:40:16.345Z,29.41
2017-03-20T08:41:25.122Z,29.21
2017-03-20T08:42:34.505Z,29.11
2017-03-20T08:43:44.520Z,29.6
2017-03-20T08:44:54.215Z,29.69
2017-03-20T08:46:03.615Z,29.89
2017-03-20T08:47:12.381Z,29.6
2017-03-20T08:48:22.069Z,29.31
2017-03-20T08:49:31.455Z,29.69
2017-03-20T08:50:41.366Z,29.6
2017-03-20T08:51:50.114Z,29.5
2017-03-20T08:52:59.808Z,29.6
2017-03-20T08:54:08.866Z,29.21
2017-03-20T08:55:18.203Z,29.41
2017-03-20T08:56:27.260Z,29.41
2017-03-20T08:57:36.271Z,29.5
2017-03-20T08:58:45.632Z,28.92
2017-03-20T08:59:55.021Z,29.69
2017-03-20T09:01:04.068Z,29.41
2017-03-20T09:02:12.791Z,29.6
2017-03-20T09:03:21.862Z,29.61
2017-03-20T09:04:31.259Z,29.02
2017-03-20T09:05:40.642Z,29.11
2017-03-20T09:06:49.410Z,29.69
2017-03-20T09:07:58.987Z,29.41
2017-03-20T09:09:08.377Z,29.52
2017-03-20T09:10:17.736Z,29.32
2017-03-20T09:11:26.468Z,29.5
2017-03-20T09:12:35.241Z,29.42
2017-03-20T09:13:44.320Z,29.02
2017-03-20T09:14:53.683Z,28.73
2017-03-20T09:16:03.345Z,29.21
2017-03-20T09:17:12.420Z,29.42
2017-03-20T09:18:21.831Z,29.5
2017-03-20T09:19:30.927Z,28.83
2017-03-20T09:20:40.523Z,29.31
2017-03-20T09:21:49.298Z,29.52
2017-03-20T09:22:58.069Z,29.5
2017-03-20T09:24:07.457Z,29.21
2017-03-20T09:25:16.822Z,28.74
2017-03-20T09:26:25.527Z,29.02
2017-03-20T09:27:35.163Z,29.52
2017-03-20T09:28:44.728Z,29.52
2017-03-20T09:29:54.373Z,28.83
2017-03-20T09:31:03.218Z,28.64
2017-03-20T09:32:12.293Z,29.22
2017-03-20T09:33:21.368Z,29.32
2017-03-20T09:34:30.449Z,29.42
2017-03-20T09:35:39.524Z,29.03
2017-03-20T09:36:48.306Z,28.94
2017-03-20T09:37:57.379Z,29.22
2017-03-20T09:39:06.743Z,29.22
2017-03-20T09:40:16.479Z,29.03
2017-03-20T09:41:25.556Z,29.22
2017-03-20T09:42:34.333Z,29.22
2017-03-20T09:43:43.720Z,29.32
2017-03-20T09:44:53.405Z,29.32
2017-03-20T09:46:02.658Z,29.32
2017-03-20T09:47:11.461Z,28.94
2017-03-20T09:48:20.534Z,29.13
2017-03-20T09:49:30.234Z,28.94
2017-03-20T09:50:39.315Z,29.13
2017-03-20T09:51:48.092Z,28.94
2017-03-20T09:52:57.176Z,28.84
2017-03-20T09:54:05.908Z,29.13
2017-03-20T09:55:15.257Z,28.94
2017-03-20T09:56:24.641Z,28.74
2017-03-20T09:57:34.339Z,29.13
2017-03-20T09:58:43.424Z,29.32
2017-03-20T09:59:53.405Z,29.13
2017-03-20T10:01:03.063Z,29.42
2017-03-20T10:02:11.837Z,28.83
2017-03-20T10:03:21.491Z,28.84
2017-03-20T10:04:30.506Z,28.74
2017-03-20T10:05:39.849Z,29.52
2017-03-20T10:06:48.640Z,29.03
2017-03-20T10:07:57.995Z,29.22
2017-03-20T10:09:07.329Z,29.03
2017-03-20T10:10:17.337Z,29.42
2017-03-20T10:11:26.365Z,29.42
2017-03-20T10:12:35.135Z,29.42
2017-03-20T10:13:44.823Z,29.61
2017-03-20T10:14:54.820Z,29.03
2017-03-20T10:16:04.204Z,29.42
2017-03-20T10:17:12.946Z,29.22
2017-03-20T10:18:21.984Z,29.52
2017-03-20T10:19:31.067Z,28.74
2017-03-20T10:20:40.460Z,28.84
2017-03-20T10:21:49.206Z,29.52
2017-03-20T10:22:58.241Z,29.42
2017-03-20T10:24:07.618Z,29.32
2017-03-20T10:25:16.977Z,29.22
2017-03-20T10:26:26.016Z,29.13
2017-03-20T10:27:35.087Z,28.74
2017-03-20T10:28:44.776Z,29.32
2017-03-20T10:29:54.962Z,29.32
2017-03-20T10:31:04.026Z,28.94
2017-03-20T10:32:13.057Z,29.42
2017-03-20T10:33:22.137Z,28.64
2017-03-20T10:34:31.190Z,28.84
2017-03-20T10:35:40.530Z,28.74
2017-03-20T10:36:49.572Z,28.74
2017-03-20T10:37:58.915Z,28.94
2017-03-20T10:39:07.977Z,29.22
2017-03-20T10:40:17.311Z,29.03
2017-03-20T10:41:26.383Z,28.84
2017-03-20T10:42:35.462Z,29.52
2017-03-20T10:43:45.132Z,29.52
2017-03-20T10:44:54.450Z,29.8
2017-03-20T10:46:03.991Z,29.42
2017-03-20T10:47:12.759Z,29.42
2017-03-20T10:48:22.170Z,29.32
2017-03-20T10:49:31.251Z,29.61
2017-03-20T10:50:40.627Z,29.52
2017-03-20T10:51:49.443Z,28.94
2017-03-20T10:52:58.176Z,29.71
2017-03-20T10:54:07.516Z,29.42
2017-03-20T10:55:16.635Z,29.03
2017-03-20T10:56:26.210Z,29.22
2017-03-20T10:57:35.248Z,29.71
2017-03-20T10:58:44.287Z,29.13
2017-03-20T10:59:53.977Z,29.03
2017-03-20T11:01:03.662Z,29.42
2017-03-20T11:02:12.405Z,29.8
2017-03-20T11:03:21.723Z,29.71
2017-03-20T11:04:31.107Z,29.61
2017-03-20T11:05:40.459Z,29.8
2017-03-20T11:06:49.161Z,29.61
2017-03-20T11:07:58.201Z,29.03
2017-03-20T11:09:07.276Z,29.42
2017-03-20T11:10:16.346Z,29.61
2017-03-20T11:11:25.411Z,29.71
2017-03-20T11:12:34.184Z,29.52
2017-03-20T11:13:43.562Z,29.61
2017-03-20T11:14:53.240Z,29.13
2017-03-20T11:16:02.320Z,29.52
2017-03-20T11:17:11.706Z,29.42
2017-03-20T11:18:20.789Z,28.94
2017-03-20T11:19:29.875Z,29.32
2017-03-20T11:20:38.644Z,28.64
2017-03-20T11:21:47.715Z,29.13
2017-03-20T11:22:56.486Z,29.32
2017-03-20T11:24:06.065Z,29.03
2017-03-20T11:25:16.057Z,29.13
2017-03-20T11:26:24.843Z,28.74
2017-03-20T11:27:33.909Z,28.94
2017-03-20T11:28:43.259Z,29.32
2017-03-20T11:29:52.598Z,28.74
2017-03-20T11:31:01.956Z,29.32
2017-03-20T11:32:10.960Z,29.22
2017-03-20T11:33:20.035Z,28.74
2017-03-20T11:34:30.228Z,29.13
2017-03-20T11:35:39.908Z,28.84
2017-03-20T11:36:48.977Z,29.22
2017-03-20T11:37:58.025Z,29.32
2017-03-20T11:39:07.769Z,29.32
2017-03-20T11:40:16.532Z,29.13
2017-03-20T11:41:25.649Z,29.13
2017-03-20T11:42:34.693Z,28.84
2017-03-20T11:43:43.418Z,29.13
2017-03-20T11:44:52.695Z,28.45
2017-03-20T11:46:02.082Z,28.55
2017-03-20T11:47:10.860Z,28.45
2017-03-20T11:48:19.935Z,29.14
2017-03-20T11:49:29.636Z,28.74
2017-03-20T11:50:39.288Z,29.13
2017-03-20T11:51:47.996Z,29.05
2017-03-20T11:52:57.378Z,29.05
2017-03-20T11:54:06.146Z,28.55
2017-03-20T11:55:15.529Z,28.56
2017-03-20T11:56:25.168Z,28.76
2017-03-20T11:57:34.201Z,28.95
2017-03-20T11:58:43.891Z,28.66
2017-03-20T11:59:52.970Z,28.85
2017-03-20T12:01:01.740Z,28.95
2017-03-20T12:02:11.018Z,29.05
2017-03-20T12:03:20.046Z,28.47
2017-03-20T12:04:29.737Z,29.05
2017-03-20T12:05:38.506Z,28.76
2017-03-20T12:06:47.276Z,28.76
2017-03-20T12:07:56.043Z,28.56
2017-03-20T12:09:04.823Z,28.66
2017-03-20T12:10:14.502Z,28.66
2017-03-20T12:11:23.567Z,28.76
2017-03-20T12:12:32.840Z,28.66
2017-03-20T12:13:42.195Z,28.56
2017-03-20T12:14:50.927Z,28.66
2017-03-20T12:16:00.310Z,28.37
2017-03-20T12:17:09.363Z,28.37
2017-03-20T12:18:18.089Z,28.56
2017-03-20T12:19:27.779Z,28.66
2017-03-20T12:20:36.654Z,28.47
2017-03-20T12:21:45.400Z,28.66
2017-03-20T12:22:54.135Z,28.66
2017-03-20T12:24:03.821Z,28.85
2017-03-20T12:25:13.221Z,28.76
2017-03-20T12:26:22.555Z,28.85
2017-03-20T12:27:31.635Z,28.56
2017-03-20T12:28:40.948Z,28.76
2017-03-20T12:29:49.979Z,28.56
2017-03-20T12:30:59.675Z,28.66
2017-03-20T12:32:08.751Z,28.47
2017-03-20T12:33:18.127Z,28.56
2017-03-20T12:34:27.780Z,28.56
2017-03-20T12:35:37.114Z,28.37
2017-03-20T12:36:45.872Z,28.18
2017-03-20T12:37:54.907Z,28.37
2017-03-20T12:39:13.248Z,28.58
2017-03-20T12:40:22.346Z,28
2017-03-20T12:41:31.682Z,28.29
2017-03-20T12:42:40.718Z,28.19
2017-03-20T12:43:50.413Z,28.09
2017-03-20T12:45:00.402Z,28.09
2017-03-20T12:46:09.478Z,28.09
2017-03-20T12:47:18.548Z,28.39
2017-03-20T12:48:27.330Z,28
2017-03-20T12:49:36.409Z,28.19
2017-03-20T12:50:46.044Z,28.29
2017-03-20T12:51:55.121Z,28.09
2017-03-20T12:53:04.813Z,28.19
2017-03-20T12:54:14.193Z,28.09
2017-03-20T12:55:22.969Z,28
2017-03-20T12:56:31.715Z,28.09
2017-03-20T12:57:41.085Z,28.19
2017-03-20T12:58:50.442Z,28.19
2017-03-20T12:59:59.180Z,28.09
2017-03-20T13:01:08.506Z,28.09
2017-03-20T13:02:17.558Z,27.81
2017-03-20T13:03:26.881Z,27.71
2017-03-20T13:04:36.223Z,27.81
2017-03-20T13:05:45.303Z,27.61
2017-03-20T13:06:54.374Z,27.81
2017-03-20T13:08:03.415Z,27.81
2017-03-20T13:09:12.759Z,27.91
2017-03-20T13:10:22.443Z,27.71
2017-03-20T13:11:31.687Z,27.71
2017-03-20T13:12:41.027Z,27.81
2017-03-20T13:13:50.109Z,27.91
2017-03-20T13:14:59.998Z,27.91
2017-03-20T13:16:08.767Z,27.61
2017-03-20T13:17:17.842Z,27.71
2017-03-20T13:18:26.923Z,27.44
2017-03-20T13:19:35.692Z,27.51
2017-03-20T13:20:45.376Z,27.42
2017-03-20T13:21:54.420Z,27.44
2017-03-20T13:23:03.901Z,27.44
2017-03-20T13:24:13.289Z,27.33
2017-03-20T13:25:22.352Z,27.42
2017-03-20T13:26:31.423Z,27.42
2017-03-20T13:27:40.302Z,27.53
2017-03-20T13:28:49.700Z,27.44
2017-03-20T13:29:59.397Z,27.51
2017-03-20T13:31:08.769Z,27.42
2017-03-20T13:32:17.536Z,27.61
2017-03-20T13:33:26.305Z,27.71
2017-03-20T13:34:35.419Z,28
2017-03-20T13:35:44.496Z,27.81
2017-03-20T13:36:53.263Z,27.61
2017-03-20T13:38:02.040Z,28
2017-03-20T13:39:11.470Z,27.71
2017-03-20T13:40:20.540Z,27.91
2017-03-20T13:41:29.313Z,27.71
2017-03-20T13:42:38.376Z,27.61
2017-03-20T13:43:48.377Z,27.61
2017-03-20T13:44:57.449Z,27.91
2017-03-20T13:46:06.515Z,27.61
2017-03-20T13:47:15.284Z,27.71
2017-03-20T13:48:24.359Z,27.91
2017-03-20T13:49:33.441Z,27.71
2017-03-20T13:50:42.208Z,27.81
2017-03-20T13:51:50.973Z,27.71
2017-03-20T13:52:59.754Z,27.61
2017-03-20T13:54:09.130Z,27.61
2017-03-20T13:55:18.181Z,27.51
2017-03-20T13:56:27.413Z,27.51
2017-03-20T13:57:36.533Z,27.61
2017-03-20T13:58:46.179Z,27.51
2017-03-20T13:59:55.261Z,27.71
2017-03-20T14:01:04.659Z,27.51
2017-03-20T14:02:13.440Z,27.51
2017-03-20T14:03:22.750Z,27.71
2017-03-20T14:04:32.432Z,27.71
2017-03-20T14:05:41.196Z,27.71
2017-03-20T14:06:49.966Z,27.61
2017-03-20T14:07:59.043Z,27.91
2017-03-20T14:09:08.120Z,28
2017-03-20T14:10:17.503Z,27.71
2017-03-20T14:11:26.277Z,27.81
2017-03-20T14:12:35.055Z,27.91
2017-03-20T14:13:44.748Z,27.71
2017-03-20T14:14:54.705Z,27.71
2017-03-20T14:16:04.039Z,27.61
2017-03-20T14:17:12.812Z,27.81
2017-03-20T14:18:21.576Z,27.7
2017-03-20T14:19:31.265Z,27.6
2017-03-20T14:20:40.331Z,27.8
2017-03-20T14:21:49.581Z,27.7
2017-03-20T14:22:58.317Z,27.8
2017-03-20T14:24:07.711Z,28.18
2017-03-20T14:25:17.445Z,28.18
2017-03-20T14:26:26.518Z,28.08
2017-03-20T14:27:35.896Z,28.37
2017-03-20T14:28:44.967Z,28.18
2017-03-20T14:29:54.035Z,28.18
2017-03-20T14:31:03.612Z,28.18
2017-03-20T14:32:12.985Z,28.56
2017-03-20T14:33:21.758Z,28.18
2017-03-20T14:34:31.114Z,28.18
2017-03-20T14:35:40.456Z,28.18
2017-03-20T14:36:49.223Z,28.37
2017-03-20T14:37:58.290Z,27.98
2017-03-20T14:39:07.641Z,28.37
2017-03-20T14:40:17.191Z,28.28
2017-03-20T14:41:25.965Z,28.18
2017-03-20T14:42:34.729Z,28.28
2017-03-20T14:43:43.776Z,28.37
2017-03-20T14:44:53.086Z,28.37
2017-03-20T14:46:02.444Z,28.56
2017-03-20T14:47:11.521Z,28.28
2017-03-20T14:48:20.480Z,28.56
2017-03-20T14:49:29.555Z,28.37
2017-03-20T14:50:38.633Z,28.66
2017-03-20T14:51:47.363Z,28.28
2017-03-20T14:52:56.126Z,28.37
2017-03-20T14:54:05.197Z,28.56
2017-03-20T14:55:15.239Z,28.28
2017-03-20T14:56:24.311Z,28.37
2017-03-20T14:57:33.690Z,28.66